Terminal Aerodrome Forecast
Issued by NWS

Home | Current Version | Previous Version | Text Only | Print | Product List | Glossary On
Versions: 1 2 3 4 5 6 7 8 9 10 11 12 13
000
FTUS44 KLZK 290500
TAFLLQ
TAF
KLLQ 290540Z 2906/3006 20011KT P6SM BKN040 WS020/20040KT
     FM291000 20008KT P6SM SCT007 OVC015 WS020/22045KT
     FM291500 20012G20KT P6SM SCT015 BKN025 WS020/21040KT
     FM291800 21014G22KT P6SM SCT035 WS020/20035KT
     FM300100 19011KT P6SM SCT020 BKN035 WS020/21040KT=

USA.gov is the U.S. government's official web portal to all federal, state and local government web resources and services.